Seeley, CA

5:06 AM PDT en Septiembre 21, 2014 (GMT -0700)
El Centro Naval Air Facility | Change Station
CLOSE
Current Station
Aeropuerto
Location: El Centro,
Altura: -43 ft
Estaciones meteorológicas cercanas

Alt -43 ft 32.83 °N, 115.66 °W | Updated 10 minutes ago

Clear
Despejado
77 ° F
Sensación térmica 77 ° F
N
13
Viento Variable Viento desde SO

Hoy
Alta -- | Baja -- ° F
--% Posibilidad de precipitaciones
Ayer
Alta -- | Baja -- ° F
Precip. -- pul
6:30 AM 6:40 PM
Creciente menguante, 7% visible
Presión 29.84 pul
Visibilidad 10.0 Millas
Nubes Despejado
Punto de rocío 49 ° F
Humedad 37%
Precipitaciones 0.00 pul
Espesor de la nieve 0 in , 0 in , 1 in
UV 0 de una escala de 12
Polen 8.80 de una escala de 12
Ozono Buena
PM2.5 Buena
Flu Activity No disponible.
METAR KNJK 211156Z AUTO 23011KT 10SM CLR 25/09 A2979 RMK AO2 SLP104 T02500094 10294 20250 53004

More Conditions Fewer Conditions

Presión 29.84 pul
Visibilidad 10.0 Millas
Nubes Despejado
Punto de rocío 49 ° F
Humedad 37%
Precipitaciones 0.00 pul
Espesor de la nieve 0 in , 0 in , 1 in
UV 0 de una escala de 12
Polen 8.80 de una escala de 12
Ozono Buena
PM2.5 Buena
Flu Activity No disponible.
METAR KNJK 211156Z AUTO 23011KT 10SM CLR 25/09 A2979 RMK AO2 SLP104 T02500094 10294 20250 53004

More Conditions Fewer Conditions

10-Day Weather Forecast

Almanac

Astronomía

Sep. 21, 2014 Salida Puesta
Hora real 6:30 AM PDT 6:40 PM PDT
Crepúsculo civil 6:05 AM PDT 7:05 PM PDT
Crepúsculo náutico 5:36 AM PDT 7:33 PM PDT
Crepúsculo astronómico 5:07 AM PDT 8:02 PM PDT
Luna 4:13 AM PDT 5:14 PM PDT
Horas de luz 12h 59m
Horas de luz
12h 10m
Tomorrow will be 2m 0s shorter.
Creciente menguante, 7% of the Moon is Illuminated
Hoy
Creciente menguante
Sep 24
Nueva
Oct 1
Cuarto creciente
Oct 8
Luna llena
Oct 15
Cuarto menguante

Extremos de hoy

Máximos del estado Bajos del estado

Community

WunderPhotos

Upload Photos

1,755,126 ¡fotos cargadas!

Nearby

Calidad del aire

  Calidad del aire Índice AQ Contaminante
Ayer Moderada
PM2.5
Ayer Buena
OZONE
Real Buena
PM2.5
Real Buena
OZONE
Domingo Moderada
OZONE
Lunes Moderada
OZONE
Martes Moderada
OZONE
Miércoles Moderada
OZONE
Jueves Moderada
OZONE

Grosos de nieve

Estación Profundido Altura
Forestdale Creek 0 in 8029 ft
Sonora Pass 0 in 8800 ft
Spratt Creek 1 in 6200 ft
Rubicon #2 0 in 7500 ft
Heavenly Valley 0 in 8850 ft

Actividad de terremotos

Ciudad Distance Mag. Tiempo y dato
Aguanga, California 79 Millas 2.5 1:38 AM PDT
2014-09-19
Magnitud mínima muestra es 2,5.

Temperaturas de aguas costeras

Lugar Temperatura
Sin partes meteorológicos de las estaciones

Estaciones meteorológicas cercanas